Главная страница
METAR-TAF:

METAR-TAF

Аэропорты :

Нариманово

Астрахань, Россия

широта: 46-17N, долгота: 048-00-23E, высота над уровнем моря: 0 м

Текущие метеонаблюдения

Эта сводка был подготовлена 10 минут назад, в 03:00 UTC
Ветер 6 Узел от восточно-северо-восточный
Температура 21°C
Влажность 40%
Давление 1014 hPa
Видимость 10 км и более
Нет облачности ниже 1500 м, и нет кучево-дождевой облачности

METAR: URWA 170300Z 06003MPS CAVOK 21/07 Q1014 R09/010070 NOSIG RMK QFE762/1017

Время: 06:10 (03:10 UTC)

Прогноз

Эта сводка был подготовлена 1 час и 10 минут назад, в 02:00 UTC
Прогноз действительный с 17-го 03 UTC до 17-го 12 UTC
Ветер 10 Узел от восточный с порывами до 23 Узел
Видимость 10 км и более
Нет облачности ниже 1500 м, и нет кучево-дождевой облачности

TAF: URWA 170200Z 1703/1712 09005G12MPS CAVOK

Метеонаблюдения и прогнозы для более 4000 аэропортов (сводки METAR и TAF).

Имеющиеся станции представлены на карте желтыми и красными точками.

Чтобы увидеть название станции, наведите на нее мышь.

Затем щелкните, чтобы увидеть метеонаблюдения и метеопрогнозы.

Управление картой: чтобы увеличить масштаб, щелкните зеленые кнопки с черным крестиком; чтобы уменьшить масштаб, щелкните зеленую кнопку с тире; для просмотра соседних карт щелкайте зеленые стрелки.


METAR-TAF: